Time;durP1;ratioP1;P1;durP2;ratioP2;P2;SDS_P1;SDS_P2;PMS_P1;PMS_P2;Temp;Humidity;BMP_temperature;BMP_pressure;BME280_temperature;BME280_humidity;BME280_pressure;Samples;Min_cycle;Max_cycle;Signal;HPM_P1;HPM_P2
2023/03/20 00:00:15;;;;;;;;;;;14.20;54.00;;;;;;4994463;28;19921;-89
2023/03/20 00:02:41;;;;;;;;;;;14.10;54.00;;;;;;4992586;28;19914;-89
2023/03/20 00:05:27;;;;;;;;;;;14.00;54.00;;;;;;4992217;28;20377;-91
2023/03/20 00:07:54;;;;;;;;;;;13.90;53.90;;;;;;4985131;28;19914;-92
2023/03/20 00:10:20;;;;;;;;;;;13.80;54.00;;;;;;4992151;28;19917;-88
2023/03/20 00:12:47;;;;;;;;;;;13.70;54.20;;;;;;4989155;28;19917;-89
2023/03/20 00:15:21;;;;;;;;;;;13.60;54.30;;;;;;4986729;28;19918;-92
2023/03/20 00:17:47;;;;;;;;;;;13.50;54.30;;;;;;4979051;28;19937;-89
2023/03/20 00:20:13;;;;;;;;;;;13.40;54.50;;;;;;4988704;28;19917;-87
2023/03/20 00:22:39;;;;;;;;;;;13.30;54.60;;;;;;4987665;28;19914;-92
2023/03/20 00:25:05;;;;;;;;;;;13.20;54.60;;;;;;5005688;28;19930;-87
2023/03/20 00:27:31;;;;;;;;;;;13.10;54.60;;;;;;4990514;28;19917;-92
2023/03/20 00:29:57;;;;;;;;;;;13.10;54.80;;;;;;4988684;28;19918;-90
2023/03/20 00:32:23;;;;;;;;;;;13.00;54.80;;;;;;4987789;28;19939;-90
2023/03/20 00:34:50;;;;;;;;;;;13.00;55.00;;;;;;4989746;28;20008;-89
2023/03/20 00:37:16;;;;;;;;;;;13.00;55.10;;;;;;4990611;28;19917;-92
2023/03/20 00:39:41;;;;;;;;;;;13.00;55.00;;;;;;4991441;28;19918;-92
2023/03/20 00:42:09;;;;;;;;;;;13.00;55.20;;;;;;4991480;28;19918;-92
2023/03/20 00:44:38;;;;;;;;;;;13.00;55.20;;;;;;4991097;28;19922;-87
2023/03/20 00:47:10;;;;;;;;;;;13.10;55.40;;;;;;4989390;28;19909;-91
2023/03/20 00:49:37;;;;;;;;;;;13.10;55.50;;;;;;4989732;28;19922;-91
2023/03/20 00:52:03;;;;;;;;;;;13.10;55.60;;;;;;4989001;28;20287;-88
2023/03/20 00:54:29;;;;;;;;;;;13.10;55.60;;;;;;4989662;28;19945;-91
2023/03/20 00:56:58;;;;;;;;;;;13.20;55.60;;;;;;4989002;28;19996;-89
2023/03/20 00:59:25;;;;;;;;;;;13.10;55.50;;;;;;4990558;28;19918;-87
2023/03/20 01:01:51;;;;;;;;;;;13.20;55.50;;;;;;4988897;28;19914;-89
2023/03/20 01:04:18;;;;;;;;;;;13.20;55.50;;;;;;4990134;28;19922;-88
2023/03/20 01:06:44;;;;;;;;;;;13.20;55.50;;;;;;4990165;28;19969;-89
2023/03/20 01:09:10;;;;;;;;;;;13.20;55.40;;;;;;4988918;28;20361;-92
2023/03/20 01:11:36;;;;;;;;;;;13.20;55.20;;;;;;4990923;28;19917;-90
2023/03/20 01:14:02;;;;;;;;;;;13.10;55.30;;;;;;4989782;28;19917;-91
2023/03/20 01:16:27;;;;;;;;;;;13.00;55.20;;;;;;4988433;28;19921;-90
2023/03/20 01:18:53;;;;;;;;;;;13.00;55.20;;;;;;4988700;28;19921;-89
2023/03/20 01:21:19;;;;;;;;;;;12.90;55.50;;;;;;4990143;28;19918;-86
2023/03/20 01:23:45;;;;;;;;;;;12.90;55.60;;;;;;4990934;28;20382;-89
2023/03/20 01:26:37;;;;;;;;;;;12.90;55.70;;;;;;4989267;28;20231;-89
2023/03/20 01:29:16;;;;;;;;;;;12.90;55.60;;;;;;4986981;28;19921;-86
2023/03/20 01:31:42;;;;;;;;;;;12.90;55.50;;;;;;4988183;28;20357;-89
2023/03/20 01:34:09;;;;;;;;;;;13.00;55.60;;;;;;4990247;28;19928;-90
2023/03/20 01:36:35;;;;;;;;;;;13.10;55.80;;;;;;4988773;28;20376;-89
2023/03/20 01:39:01;;;;;;;;;;;13.10;55.90;;;;;;4985755;28;19980;-89
2023/03/20 01:41:28;;;;;;;;;;;13.20;55.90;;;;;;4988857;28;19917;-87
2023/03/20 01:43:53;;;;;;;;;;;13.30;55.90;;;;;;4987036;28;20308;-87
2023/03/20 01:46:22;;;;;;;;;;;13.30;55.90;;;;;;4989548;28;19926;-92
2023/03/20 01:48:51;;;;;;;;;;;13.40;55.90;;;;;;5007020;28;19921;-91
2023/03/20 01:51:21;;;;;;;;;;;13.40;55.90;;;;;;4985003;28;20038;-87
2023/03/20 01:53:50;;;;;;;;;;;13.50;56.10;;;;;;4974234;28;20002;-89
2023/03/20 01:56:16;;;;;;;;;;;13.50;56.10;;;;;;4986924;28;20349;-89
2023/03/20 01:58:44;;;;;;;;;;;13.60;56.00;;;;;;4992450;28;19922;-91
2023/03/20 02:01:10;;;;;;;;;;;13.70;56.00;;;;;;4993329;28;19953;-91
2023/03/20 02:03:37;;;;;;;;;;;13.80;56.00;;;;;;4992318;28;19922;-89
2023/03/20 02:06:03;;;;;;;;;;;13.80;56.00;;;;;;4991178;28;19929;-89
2023/03/20 02:08:30;;;;;;;;;;;14.00;56.00;;;;;;4990380;28;19922;-90
2023/03/20 02:10:57;;;;;;;;;;;14.00;56.10;;;;;;4991604;28;19910;-87
2023/03/20 02:13:25;;;;;;;;;;;14.20;56.10;;;;;;4991969;28;19914;-90
2023/03/20 02:16:09;;;;;;;;;;;14.20;55.90;;;;;;4992959;28;20648;-90
2023/03/20 02:18:35;;;;;;;;;;;14.30;55.90;;;;;;4991396;28;19918;-89
2023/03/20 02:21:07;;;;;;;;;;;14.30;55.90;;;;;;4991057;28;19937;-89
2023/03/20 02:23:51;;;;;;;;;;;14.40;55.80;;;;;;4990151;28;20036;-87
2023/03/20 02:26:35;;;;;;;;;;;14.40;55.80;;;;;;4990064;28;20128;-90
2023/03/20 02:29:20;;;;;;;;;;;14.50;55.70;;;;;;4991343;28;19949;-91
2023/03/20 02:31:58;;;;;;;;;;;14.60;55.70;;;;;;4990453;28;20373;-90
2023/03/20 02:34:28;;;;;;;;;;;14.70;55.70;;;;;;4991645;28;19917;-89
2023/03/20 02:37:00;;;;;;;;;;;14.70;55.70;;;;;;4991875;28;19918;-89
2023/03/20 02:39:39;;;;;;;;;;;14.70;55.60;;;;;;5006442;28;20004;-89
2023/03/20 02:42:11;;;;;;;;;;;14.80;55.70;;;;;;4992152;28;20001;-88
2023/03/20 02:44:45;;;;;;;;;;;14.80;55.60;;;;;;4989709;28;19961;-89
2023/03/20 02:47:26;;;;;;;;;;;14.90;55.60;;;;;;4990318;28;19913;-91
2023/03/20 02:49:59;;;;;;;;;;;14.90;55.70;;;;;;4990833;28;20016;-88
2023/03/20 02:52:32;;;;;;;;;;;14.90;55.70;;;;;;4991845;28;19924;-89
2023/03/20 02:55:10;;;;;;;;;;;15.00;55.80;;;;;;4992179;28;19984;-87
2023/03/20 02:58:00;;;;;;;;;;;15.00;55.70;;;;;;4991288;28;20273;-88
2023/03/20 03:00:28;;;;;;;;;;;15.10;55.80;;;;;;4989405;28;20027;-88
2023/03/20 03:03:06;;;;;;;;;;;15.10;55.80;;;;;;4991754;28;19932;-91
2023/03/20 03:05:39;;;;;;;;;;;15.20;55.70;;;;;;4991840;28;19953;-90
2023/03/20 03:08:05;;;;;;;;;;;15.20;55.70;;;;;;4991903;28;20013;-89
2023/03/20 03:10:35;;;;;;;;;;;15.20;55.70;;;;;;4992903;28;19918;-90
2023/03/20 03:13:02;;;;;;;;;;;15.30;55.70;;;;;;4990618;28;20005;-89
2023/03/20 03:15:30;;;;;;;;;;;15.30;55.70;;;;;;4992146;28;19918;-87
2023/03/20 03:17:58;;;;;;;;;;;15.30;55.70;;;;;;4992316;28;20256;-88
2023/03/20 03:20:26;;;;;;;;;;;15.30;55.70;;;;;;4992032;28;19913;-87
2023/03/20 03:22:52;;;;;;;;;;;15.40;55.80;;;;;;4990795;28;19914;-89
2023/03/20 03:25:20;;;;;;;;;;;15.40;55.80;;;;;;4991792;28;19926;-89
2023/03/20 03:27:47;;;;;;;;;;;15.40;55.80;;;;;;4990416;28;19980;-87
2023/03/20 03:30:33;;;;;;;;;;;15.40;55.80;;;;;;4991765;28;19914;-89
2023/03/20 03:33:06;;;;;;;;;;;15.50;55.70;;;;;;4989721;28;19962;-89
2023/03/20 03:35:31;;;;;;;;;;;15.40;55.80;;;;;;4991801;28;19925;-91
2023/03/20 03:38:02;;;;;;;;;;;15.50;55.80;;;;;;4991952;28;19914;-89
2023/03/20 03:40:34;;;;;;;;;;;15.50;55.80;;;;;;4990111;28;19918;-89
2023/03/20 03:43:02;;;;;;;;;;;15.50;55.80;;;;;;4988318;28;19914;-87
2023/03/20 03:45:31;;;;;;;;;;;15.60;55.80;;;;;;4989648;28;19930;-89
2023/03/20 03:48:01;;;;;;;;;;;15.60;55.80;;;;;;4989406;28;19914;-92
2023/03/20 03:50:36;;;;;;;;;;;15.60;55.80;;;;;;4988618;28;19937;-90
2023/03/20 03:53:05;;;;;;;;;;;15.60;55.80;;;;;;4990113;28;19922;-91
2023/03/20 03:55:36;;;;;;;;;;;15.60;55.80;;;;;;4991217;28;20018;-92
2023/03/20 03:58:03;;;;;;;;;;;15.60;55.80;;;;;;4989254;28;19917;-91
2023/03/20 04:00:30;;;;;;;;;;;15.60;55.80;;;;;;4990049;28;19922;-89
2023/03/20 04:02:57;;;;;;;;;;;15.60;55.80;;;;;;4990579;28;19921;-89
2023/03/20 04:05:23;;;;;;;;;;;15.70;55.70;;;;;;4989350;28;19930;-89
2023/03/20 04:07:52;;;;;;;;;;;15.70;55.70;;;;;;4990196;28;19925;-88
2023/03/20 04:10:17;;;;;;;;;;;15.70;55.60;;;;;;4987925;28;19929;-89
2023/03/20 04:12:44;;;;;;;;;;;15.70;55.60;;;;;;4988974;28;19914;-92
2023/03/20 04:15:10;;;;;;;;;;;15.70;55.50;;;;;;4990971;28;19917;-89
2023/03/20 04:17:36;;;;;;;;;;;15.70;55.50;;;;;;4990985;28;19984;-90
2023/03/20 04:20:02;;;;;;;;;;;15.70;55.50;;;;;;4989433;28;19966;-88
2023/03/20 04:22:28;;;;;;;;;;;15.70;55.40;;;;;;4990931;28;20361;-88
2023/03/20 04:24:54;;;;;;;;;;;15.70;55.40;;;;;;4990637;28;19922;-90
2023/03/20 04:27:20;;;;;;;;;;;15.70;55.40;;;;;;4989712;28;20457;-90
2023/03/20 04:29:48;;;;;;;;;;;15.70;55.30;;;;;;4989497;28;19917;-89
2023/03/20 04:32:17;;;;;;;;;;;15.70;55.30;;;;;;4990229;28;19945;-90
2023/03/20 04:34:43;;;;;;;;;;;15.70;55.30;;;;;;4990637;28;19917;-90
2023/03/20 04:37:09;;;;;;;;;;;15.70;55.30;;;;;;4989122;28;19920;-89
2023/03/20 04:39:35;;;;;;;;;;;15.70;55.30;;;;;;4990418;28;20383;-90
2023/03/20 04:42:01;;;;;;;;;;;15.60;55.30;;;;;;4989219;28;20109;-91
2023/03/20 04:44:27;;;;;;;;;;;15.60;55.30;;;;;;4990334;28;19945;-92
2023/03/20 04:46:53;;;;;;;;;;;15.60;55.30;;;;;;4989682;28;19965;-89
2023/03/20 04:49:22;;;;;;;;;;;15.60;55.30;;;;;;4990592;28;20268;-90
2023/03/20 04:51:48;;;;;;;;;;;15.60;55.10;;;;;;4989196;28;19924;-90
2023/03/20 04:54:13;;;;;;;;;;;15.60;55.10;;;;;;4989072;28;20381;-89
2023/03/20 04:56:39;;;;;;;;;;;15.60;55.00;;;;;;4989442;28;20004;-90
2023/03/20 04:59:07;;;;;;;;;;;15.50;54.90;;;;;;4988917;28;19969;-89
2023/03/20 05:01:33;;;;;;;;;;;15.50;55.00;;;;;;4987693;28;19921;-89
2023/03/20 05:04:00;;;;;;;;;;;15.60;54.90;;;;;;4989778;28;19925;-89
2023/03/20 05:06:26;;;;;;;;;;;15.60;54.90;;;;;;4989466;28;19984;-88
2023/03/20 05:08:53;;;;;;;;;;;15.60;54.80;;;;;;4987490;28;19980;-89
2023/03/20 05:11:18;;;;;;;;;;;15.60;54.70;;;;;;4988133;28;19973;-90
2023/03/20 05:13:44;;;;;;;;;;;15.60;54.60;;;;;;4987241;28;19936;-91
2023/03/20 05:16:11;;;;;;;;;;;15.60;54.60;;;;;;4988633;28;19960;-87
2023/03/20 05:18:37;;;;;;;;;;;15.60;54.50;;;;;;4989951;28;19968;-92
2023/03/20 05:21:03;;;;;;;;;;;15.60;54.40;;;;;;4987747;28;19918;-89
2023/03/20 05:23:28;;;;;;;;;;;15.60;54.30;;;;;;4990398;28;19969;-89
2023/03/20 05:25:54;;;;;;;;;;;15.50;54.10;;;;;;4991482;28;19957;-89
2023/03/20 05:28:19;;;;;;;;;;;15.50;54.20;;;;;;4991501;28;19968;-89
2023/03/20 05:30:46;;;;;;;;;;;15.50;54.10;;;;;;4991492;28;19925;-88
2023/03/20 05:33:13;;;;;;;;;;;15.50;54.10;;;;;;4992237;28;20272;-91
2023/03/20 05:35:39;;;;;;;;;;;15.60;54.00;;;;;;4991053;28;19922;-90
2023/03/20 05:38:04;;;;;;;;;;;15.50;53.90;;;;;;4993479;28;19917;-90
2023/03/20 05:40:30;;;;;;;;;;;15.50;53.80;;;;;;4993758;28;19918;-89
2023/03/20 05:42:56;;;;;;;;;;;15.50;53.70;;;;;;4991375;28;20298;-92
2023/03/20 05:45:22;;;;;;;;;;;15.40;53.70;;;;;;4991761;28;20016;-87
2023/03/20 05:47:47;;;;;;;;;;;15.50;53.70;;;;;;4993695;28;19921;-89
2023/03/20 05:50:13;;;;;;;;;;;15.50;53.70;;;;;;4991873;28;19917;-91
2023/03/20 05:52:38;;;;;;;;;;;15.50;53.70;;;;;;4991682;28;19914;-89
2023/03/20 05:55:04;;;;;;;;;;;15.50;53.80;;;;;;4992990;28;19918;-91
2023/03/20 05:57:30;;;;;;;;;;;15.50;53.70;;;;;;4990979;28;19913;-89
2023/03/20 05:59:56;;;;;;;;;;;15.50;53.60;;;;;;4993703;28;19975;-92
2023/03/20 06:02:21;;;;;;;;;;;15.40;53.70;;;;;;4993389;28;19914;-87
2023/03/20 06:04:47;;;;;;;;;;;15.40;53.60;;;;;;4991902;28;19918;-89
2023/03/20 06:07:13;;;;;;;;;;;15.40;53.60;;;;;;4992275;28;19925;-91
2023/03/20 06:09:38;;;;;;;;;;;15.40;53.70;;;;;;4992504;28;19914;-87
2023/03/20 06:12:04;;;;;;;;;;;15.40;53.70;;;;;;4993157;28;19914;-89
2023/03/20 06:14:30;;;;;;;;;;;15.50;53.70;;;;;;4992198;28;19953;-90
2023/03/20 06:16:56;;;;;;;;;;;15.50;53.50;;;;;;4992944;28;19920;-89
2023/03/20 06:19:22;;;;;;;;;;;15.50;53.50;;;;;;4991348;28;19941;-89
2023/03/20 06:21:48;;;;;;;;;;;15.50;53.50;;;;;;4991331;28;20008;-91
2023/03/20 06:24:14;;;;;;;;;;;15.50;53.50;;;;;;4991943;28;19918;-91
2023/03/20 06:26:40;;;;;;;;;;;15.60;53.50;;;;;;4991809;28;20420;-90
2023/03/20 06:29:06;;;;;;;;;;;15.60;53.50;;;;;;4991506;28;19920;-89
2023/03/20 06:31:32;;;;;;;;;;;15.60;53.30;;;;;;4991320;28;19921;-92
2023/03/20 06:33:58;;;;;;;;;;;15.60;53.30;;;;;;4991702;28;19924;-92
2023/03/20 06:36:23;;;;;;;;;;;15.70;53.30;;;;;;4992681;28;20017;-89
2023/03/20 06:38:49;;;;;;;;;;;15.70;53.20;;;;;;4992517;28;19914;-89
2023/03/20 06:41:15;;;;;;;;;;;15.70;53.10;;;;;;4992797;28;20417;-89
2023/03/20 06:43:41;;;;;;;;;;;15.80;53.00;;;;;;4992729;28;19914;-88
2023/03/20 06:46:08;;;;;;;;;;;15.80;53.00;;;;;;4991323;28;19957;-87
2023/03/20 06:48:35;;;;;;;;;;;15.80;52.90;;;;;;4986694;28;19972;-88
2023/03/20 06:51:00;;;;;;;;;;;15.90;52.80;;;;;;4987603;28;19929;-89
2023/03/20 06:53:26;;;;;;;;;;;15.90;52.80;;;;;;4988118;28;19918;-92
2023/03/20 06:55:53;;;;;;;;;;;16.00;52.80;;;;;;4988409;28;19968;-88
2023/03/20 06:58:19;;;;;;;;;;;16.10;52.70;;;;;;4989066;28;19921;-91
2023/03/20 07:00:45;;;;;;;;;;;16.10;52.60;;;;;;4990489;28;19925;-87
2023/03/20 07:03:11;;;;;;;;;;;16.10;52.40;;;;;;4988696;28;19913;-87
2023/03/20 07:05:37;;;;;;;;;;;16.10;52.30;;;;;;4991291;28;19948;-89
2023/03/20 07:08:03;;;;;;;;;;;16.20;52.30;;;;;;4990235;28;19921;-91
2023/03/20 07:10:28;;;;;;;;;;;16.20;52.10;;;;;;4990843;28;19922;-91
2023/03/20 07:12:54;;;;;;;;;;;16.20;52.00;;;;;;4989354;28;19917;-87
2023/03/20 07:15:20;;;;;;;;;;;16.30;51.80;;;;;;4987900;28;20646;-88
2023/03/20 07:17:46;;;;;;;;;;;16.30;51.50;;;;;;4988210;28;20026;-88
2023/03/20 07:20:12;;;;;;;;;;;16.20;51.40;;;;;;4990241;28;19985;-91
2023/03/20 07:22:41;;;;;;;;;;;16.20;51.30;;;;;;4991654;28;19928;-88
2023/03/20 07:25:13;;;;;;;;;;;16.30;51.20;;;;;;4993512;28;19930;-91
2023/03/20 07:27:41;;;;;;;;;;;16.30;51.40;;;;;;4997009;28;19975;-88
2023/03/20 07:30:16;;;;;;;;;;;16.30;51.30;;;;;;4995001;28;19918;-90
2023/03/20 07:32:43;;;;;;;;;;;16.30;51.30;;;;;;4993768;28;19968;-88
2023/03/20 07:35:16;;;;;;;;;;;16.30;51.30;;;;;;4995662;28;19933;-91
2023/03/20 07:37:42;;;;;;;;;;;16.40;51.30;;;;;;4996045;28;19939;-90
2023/03/20 07:40:17;;;;;;;;;;;16.50;51.20;;;;;;5003799;28;19971;-89
2023/03/20 07:42:43;;;;;;;;;;;16.60;50.90;;;;;;4996451;28;20009;-90
2023/03/20 07:45:21;;;;;;;;;;;16.70;50.70;;;;;;5016080;28;19925;-90
2023/03/20 07:47:47;;;;;;;;;;;16.70;50.10;;;;;;4998431;28;19941;-90
2023/03/20 07:50:13;;;;;;;;;;;16.80;49.80;;;;;;4997875;28;19917;-89
2023/03/20 07:52:39;;;;;;;;;;;16.80;49.70;;;;;;4995867;28;19923;-91
2023/03/20 07:55:13;;;;;;;;;;;16.80;49.60;;;;;;4999740;28;19917;-88
2023/03/20 07:57:39;;;;;;;;;;;16.90;49.30;;;;;;4993563;28;19917;-89
2023/03/20 08:00:05;;;;;;;;;;;17.00;49.50;;;;;;4989421;28;20403;-89
2023/03/20 08:02:33;;;;;;;;;;;17.10;49.40;;;;;;4991705;28;19918;-89
2023/03/20 08:04:59;;;;;;;;;;;17.20;48.60;;;;;;4997322;28;20258;-90
2023/03/20 08:07:30;;;;;;;;;;;17.30;48.30;;;;;;4999346;28;20448;-90
2023/03/20 08:09:56;;;;;;;;;;;17.40;48.20;;;;;;4996909;28;19963;-89
2023/03/20 08:12:24;;;;;;;;;;;17.50;47.40;;;;;;4997938;28;20226;-89
2023/03/20 08:14:51;;;;;;;;;;;17.50;47.10;;;;;;4984185;28;19921;-92
2023/03/20 08:17:17;;;;;;;;;;;17.60;47.00;;;;;;4995771;28;19922;-89
2023/03/20 08:20:03;;;;;;;;;;;17.70;47.10;;;;;;4994301;28;19914;-89
2023/03/20 08:22:29;;;;;;;;;;;17.80;46.70;;;;;;4997747;28;19924;-90
2023/03/20 08:24:54;;;;;;;;;;;18.00;46.50;;;;;;4996444;28;19922;-88
2023/03/20 08:27:22;;;;;;;;;;;18.00;45.90;;;;;;5010120;28;20238;-88
2023/03/20 08:29:49;;;;;;;;;;;18.10;45.80;;;;;;4995797;28;20058;-92
2023/03/20 08:32:17;;;;;;;;;;;18.20;45.90;;;;;;5011655;28;19930;-88
2023/03/20 08:34:43;;;;;;;;;;;18.30;46.00;;;;;;4996203;28;19921;-88
2023/03/20 08:37:11;;;;;;;;;;;18.30;46.00;;;;;;4995882;28;19922;-90
2023/03/20 08:39:43;;;;;;;;;;;18.40;46.00;;;;;;4993289;28;20407;-91
2023/03/20 08:42:11;;;;;;;;;;;18.60;45.80;;;;;;4995369;28;19922;-93
2023/03/20 08:44:37;;;;;;;;;;;18.70;45.20;;;;;;4998065;28;19914;-87
2023/03/20 08:47:19;;;;;;;;;;;18.80;44.90;;;;;;4997562;28;19940;-89
2023/03/20 08:49:57;;;;;;;;;;;;;;;;;;;;;
2023/03/20 08:52:42;;;;;;;;;;;19.00;44.30;;;;;;4992462;28;19917;-88
2023/03/20 08:55:30;;;;;;;;;;;19.20;44.40;;;;;;4999070;28;19941;-90
2023/03/20 08:58:25;;;;;;;;;;;19.30;43.80;;;;;;4996404;28;19922;-91
2023/03/20 09:00:53;;;;;;;;;;;19.50;43.10;;;;;;4996052;28;20288;-89
2023/03/20 09:03:21;;;;;;;;;;;19.70;43.00;;;;;;5012084;28;19966;-90
2023/03/20 09:05:48;;;;;;;;;;;19.80;43.00;;;;;;4997987;28;19925;-89
2023/03/20 09:08:20;;;;;;;;;;;20.00;41.80;;;;;;4994718;28;19921;-90
2023/03/20 09:10:55;;;;;;;;;;;20.10;41.10;;;;;;4989655;28;19918;-90
2023/03/20 09:13:21;;;;;;;;;;;20.20;40.70;;;;;;4994977;28;20400;-88
2023/03/20 09:15:58;;;;;;;;;;;20.30;40.60;;;;;;4997943;28;19918;-87
2023/03/20 09:18:26;;;;;;;;;;;20.40;40.40;;;;;;4993014;28;19954;-88
2023/03/20 09:21:02;;;;;;;;;;;20.40;39.20;;;;;;4995603;28;19924;-90
2023/03/20 09:23:28;;;;;;;;;;;20.40;39.30;;;;;;4994804;28;19922;-90
2023/03/20 09:26:01;;;;;;;;;;;20.40;39.40;;;;;;4997037;28;20344;-89
2023/03/20 09:28:27;;;;;;;;;;;20.40;38.60;;;;;;4996049;28;20277;-88
2023/03/20 09:31:00;;;;;;;;;;;20.30;38.10;;;;;;4994954;28;19917;-90
2023/03/20 09:33:28;;;;;;;;;;;20.30;38.30;;;;;;4995692;28;19962;-91
2023/03/20 09:35:56;;;;;;;;;;;20.30;38.00;;;;;;4996713;28;19917;-91
2023/03/20 09:38:22;;;;;;;;;;;20.20;37.70;;;;;;4995433;28;19917;-93
2023/03/20 09:40:58;;;;;;;;;;;20.10;37.70;;;;;;4993437;28;19917;-92
2023/03/20 09:43:33;;;;;;;;;;;20.00;38.00;;;;;;4992944;28;19918;-91
2023/03/20 09:46:21;;;;;;;;;;;20.00;38.20;;;;;;4992689;28;20701;-89
2023/03/20 09:48:50;;;;;;;;;;;20.00;38.50;;;;;;4989624;28;19914;-88
2023/03/20 09:51:18;;;;;;;;;;;20.00;38.70;;;;;;4991813;28;19925;-88
2023/03/20 09:53:49;;;;;;;;;;;20.00;38.50;;;;;;5006399;28;19922;-89
2023/03/20 09:56:24;;;;;;;;;;;20.10;38.60;;;;;;4990744;28;19922;-88
2023/03/20 09:59:29;;;;;;;;;;;20.20;38.60;;;;;;4990692;28;20265;-91
2023/03/20 10:02:42;;;;;;;;;;;20.40;38.50;;;;;;4997773;28;19913;-92
2023/03/20 10:05:08;;;;;;;;;;;20.50;38.00;;;;;;4993192;28;19922;-90
2023/03/20 10:07:34;;;;;;;;;;;20.50;37.40;;;;;;4992987;28;19967;-90
2023/03/20 10:10:00;;;;;;;;;;;20.40;36.90;;;;;;4994334;28;19930;-90
2023/03/20 10:12:26;;;;;;;;;;;20.40;37.30;;;;;;4994497;28;20051;-90
2023/03/20 10:15:13;;;;;;;;;;;20.50;37.00;;;;;;4998284;28;19923;-91
2023/03/20 10:18:07;;;;;;;;;;;20.50;37.20;;;;;;4997366;28;19920;-89
2023/03/20 10:20:59;;;;;;;;;;;20.40;37.00;;;;;;4992273;28;20430;-89
2023/03/20 10:23:45;;;;;;;;;;;20.40;37.10;;;;;;5011972;28;19960;-89
2023/03/20 10:26:14;;;;;;;;;;;20.40;37.10;;;;;;4999569;28;19926;-90
2023/03/20 10:31:30;;;;;;;;;;;20.40;36.40;;;;;;4994618;28;20560;-89
2023/03/20 10:34:02;;;;;;;;;;;20.30;36.40;;;;;;4997992;28;19979;-93
2023/03/20 10:36:49;;;;;;;;;;;20.20;36.70;;;;;;4995732;28;19972;-92
2023/03/20 10:39:39;;;;;;;;;;;20.30;36.70;;;;;;5008635;28;19928;-88
2023/03/20 10:42:35;;;;;;;;;;;20.30;36.70;;;;;;5010549;28;19914;-90
2023/03/20 10:48:33;;;;;;;;;;;20.20;36.80;;;;;;4979325;28;19933;-91
2023/03/20 10:51:13;;;;;;;;;;;20.30;36.70;;;;;;4976748;28;19954;-91
2023/03/20 10:53:45;;;;;;;;;;;20.30;36.50;;;;;;4995405;28;20268;-92
2023/03/20 10:56:31;;;;;;;;;;;20.40;36.50;;;;;;5000487;28;20296;-91
2023/03/20 10:59:02;;;;;;;;;;;20.40;36.40;;;;;;4995327;28;19917;-88
2023/03/20 11:01:32;;;;;;;;;;;20.60;36.60;;;;;;4995596;28;19960;-92
2023/03/20 11:04:07;;;;;;;;;;;20.90;36.90;;;;;;4997367;28;19924;-90
2023/03/20 11:06:45;;;;;;;;;;;21.20;36.30;;;;;;5015929;28;19926;-87
2023/03/20 11:09:23;;;;;;;;;;;21.30;35.50;;;;;;4992085;28;19917;-92
2023/03/20 11:15:24;;;;;;;;;;;;;;;;;;;;;
2023/03/20 11:28:50;;;;;;;;;;;;;;;;;;;;;
2023/03/20 12:03:38;;;;;;;;;;;23.00;31.20;;;;;;4953374;28;19929;-90
2023/03/20 12:07:29;;;;;;;;;;;22.90;30.50;;;;;;5009371;28;20496;-90
2023/03/20 12:20:24;;;;;;;;;;;;;;;;;;;;;
2023/03/20 12:23:10;;;;;;;;;;;22.80;29.40;;;;;;4992230;28;19922;-90
2023/03/20 12:41:00;;;;;;;;;;;22.30;29.90;;;;;;5012402;26;20343;-91
2023/03/20 13:17:42;;;;;;;;;;;21.80;30.10;;;;;;4869472;23;19924;-91
2023/03/20 13:36:18;;;;;;;;;;;21.30;31.00;;;;;;3916491;26;20043;-90
2023/03/20 13:52:02;;;;;;;;;;;21.00;31.20;;;;;;5102065;22;20336;-93
2023/03/20 13:58:39;;;;;;;;;;;;;;;;;;;;;
2023/03/20 14:16:23;;;;;;;;;;;20.90;31.30;;;;;;4996493;28;19973;-93
2023/03/20 14:25:25;;;;;;;;;;;;;;;;;;;;;
2023/03/20 14:31:40;;;;;;;;;;;20.80;31.30;;;;;;4919248;29;21372;-94
2023/03/20 14:54:02;;;;;;;;;;;19.90;32.40;;;;;;4999176;28;20010;-91
2023/03/20 15:10:41;;;;;;;;;;;;;;;;;;;;;
2023/03/20 15:13:37;;;;;;;;;;;;;;;;;;;;;
2023/03/20 15:36:15;;;;;;;;;;;18.30;35.30;;;;;;4953620;28;19923;-89
2023/03/20 15:39:28;;;;;;;;;;;18.20;35.60;;;;;;4982427;28;20553;-94
2023/03/20 15:42:22;;;;;;;;;;;18.20;35.90;;;;;;5031288;28;19947;-94
2023/03/20 15:45:12;;;;;;;;;;;18.20;36.10;;;;;;5021692;28;19920;-95
2023/03/20 15:47:50;;;;;;;;;;;18.10;36.30;;;;;;4919528;29;19931;-89
2023/03/20 15:50:39;;;;;;;;;;;;;;;;;;;;;
2023/03/20 15:53:34;;;;;;;;;;;18.00;36.80;;;;;;5037243;28;19921;-90
2023/03/20 15:56:52;;;;;;;;;;;;;;;;;;;;;
2023/03/20 16:11:34;;;;;;;;;;;;;;;;;;;;;
2023/03/20 16:28:25;;;;;;;;;;;;;;;;;;;;;
2023/03/20 16:37:58;;;;;;;;;;;17.30;38.30;;;;;;5005927;28;19914;-91
2023/03/20 16:41:04;;;;;;;;;;;;;;;;;;;;;
2023/03/20 16:49:28;;;;;;;;;;;17.20;38.70;;;;;;4959023;28;19976;-90
2023/03/20 17:00:18;;;;;;;;;;;16.70;40.50;;;;;;1470978;23;19929;-91
2023/03/20 17:07:55;;;;;;;;;;;16.50;41.30;;;;;;5031764;23;19980;-90
2023/03/20 17:10:34;;;;;;;;;;;;;;;;;;;;;
2023/03/20 17:16:27;;;;;;;;;;;16.40;41.50;;;;;;5005114;28;20001;-92
2023/03/20 17:28:36;;;;;;;;;;;16.20;41.90;;;;;;4904755;29;19923;-93
2023/03/20 17:31:16;;;;;;;;;;;;;;;;;;;;;
2023/03/20 17:43:09;;;;;;;;;;;;;;;;;;;;;
2023/03/20 17:45:58;;;;;;;;;;;16.10;42.50;;;;;;4981584;28;19928;-89
2023/03/20 17:48:28;;;;;;;;;;;16.10;42.60;;;;;;4989299;28;19925;-90
2023/03/20 17:51:12;;;;;;;;;;;16.10;42.70;;;;;;5015552;28;19913;-93
2023/03/20 17:53:47;;;;;;;;;;;16.10;42.80;;;;;;5000289;28;19918;-89
2023/03/20 18:06:03;;;;;;;;;;;;;;;;;;;;;
2023/03/20 18:11:40;;;;;;;;;;;;;;;;;;;;;
2023/03/20 18:14:11;;;;;;;;;;;15.70;43.40;;;;;;5017253;28;19921;-93
2023/03/20 18:16:36;;;;;;;;;;;15.70;43.40;;;;;;5023739;28;19921;-91
2023/03/20 18:19:02;;;;;;;;;;;15.70;43.60;;;;;;5019118;28;20242;-93
2023/03/20 18:21:31;;;;;;;;;;;15.70;43.60;;;;;;5003043;28;19924;-93
2023/03/20 18:24:09;;;;;;;;;;;15.70;43.70;;;;;;5025909;28;19929;-90
2023/03/20 18:29:31;;;;;;;;;;;15.60;43.80;;;;;;4999285;28;19914;-91
2023/03/20 18:36:06;;;;;;;;;;;;;;;;;;;;;
2023/03/20 18:38:54;;;;;;;;;;;15.60;44.10;;;;;;4980975;28;19917;-90
2023/03/20 18:50:35;;;;;;;;;;;15.40;45.10;;;;;;5011128;28;19995;-93
2023/03/20 18:53:01;;;;;;;;;;;15.30;45.20;;;;;;5005866;28;19930;-90
2023/03/20 18:55:30;;;;;;;;;;;15.30;45.40;;;;;;5012904;28;20028;-88
2023/03/20 18:58:15;;;;;;;;;;;;;;;;;;;;;
2023/03/20 19:00:45;;;;;;;;;;;15.30;45.60;;;;;;5002427;28;19954;-88
2023/03/20 19:03:13;;;;;;;;;;;15.30;45.60;;;;;;5009541;28;20270;-89
2023/03/20 19:05:39;;;;;;;;;;;15.30;45.70;;;;;;4992045;28;20391;-90
2023/03/20 19:08:10;;;;;;;;;;;15.30;45.80;;;;;;4995661;28;19914;-89
2023/03/20 19:10:41;;;;;;;;;;;15.30;45.90;;;;;;4988942;28;20008;-91
2023/03/20 19:13:26;;;;;;;;;;;;;;;;;;;;;
2023/03/20 19:16:12;;;;;;;;;;;15.30;46.00;;;;;;5011823;28;19925;-90
2023/03/20 19:18:48;;;;;;;;;;;15.30;46.20;;;;;;4994047;28;19968;-90
2023/03/20 19:21:24;;;;;;;;;;;;;;;;;;;;;
2023/03/20 19:24:21;;;;;;;;;;;15.30;46.50;;;;;;5008027;28;19925;-93
2023/03/20 19:26:55;;;;;;;;;;;15.30;46.70;;;;;;4990779;28;20343;-92
2023/03/20 19:29:36;;;;;;;;;;;;;;;;;;;;;
2023/03/20 19:32:12;;;;;;;;;;;15.20;47.00;;;;;;5007493;28;19921;-90
2023/03/20 19:34:38;;;;;;;;;;;15.20;47.30;;;;;;4994394;28;19925;-87
2023/03/20 19:37:11;;;;;;;;;;;15.10;47.70;;;;;;4991186;28;20296;-93
2023/03/20 19:39:56;;;;;;;;;;;15.00;48.00;;;;;;5007881;28;20275;-93
2023/03/20 19:42:26;;;;;;;;;;;15.00;48.20;;;;;;5002436;28;19957;-89
2023/03/20 19:48:10;;;;;;;;;;;;;;;;;;;;;
2023/03/20 19:53:28;;;;;;;;;;;14.90;49.00;;;;;;4994130;28;19913;-90
2023/03/20 19:56:29;;;;;;;;;;;;;;;;;;;;;
2023/03/20 19:59:19;;;;;;;;;;;14.80;49.20;;;;;;4980876;28;20358;-92
2023/03/20 20:02:38;;;;;;;;;;;14.80;49.30;;;;;;4990310;28;19917;-91
2023/03/20 20:05:22;;;;;;;;;;;14.90;49.10;;;;;;4996616;28;19922;-90
2023/03/20 20:07:56;;;;;;;;;;;14.90;49.10;;;;;;5005584;28;20305;-91
2023/03/20 20:10:26;;;;;;;;;;;15.00;49.10;;;;;;5003669;28;19930;-91
2023/03/20 20:12:52;;;;;;;;;;;14.90;49.30;;;;;;5008090;28;19924;-89
2023/03/20 20:15:25;;;;;;;;;;;14.90;49.40;;;;;;4990977;28;19921;-90
2023/03/20 20:18:11;;;;;;;;;;;14.90;49.50;;;;;;5008864;28;20000;-91
2023/03/20 20:21:25;;;;;;;;;;;;;;;;;;;;;
2023/03/20 20:27:05;;;;;;;;;;;;;;;;;;;;;
2023/03/20 20:29:34;;;;;;;;;;;15.00;49.60;;;;;;5007256;28;19914;-91
2023/03/20 20:32:08;;;;;;;;;;;15.00;49.70;;;;;;5007071;28;20388;-90
2023/03/20 20:34:52;;;;;;;;;;;;;;;;;;;;;
2023/03/20 20:37:19;;;;;;;;;;;14.90;49.80;;;;;;5007697;28;20393;-91
2023/03/20 20:39:50;;;;;;;;;;;14.90;50.10;;;;;;5007518;28;19914;-89
2023/03/20 20:42:16;;;;;;;;;;;14.90;50.20;;;;;;5007238;28;19976;-92
2023/03/20 20:44:42;;;;;;;;;;;14.80;50.40;;;;;;5009903;28;19965;-90
2023/03/20 20:47:08;;;;;;;;;;;14.80;50.60;;;;;;4991322;28;19926;-93
2023/03/20 20:49:34;;;;;;;;;;;14.80;50.70;;;;;;5008210;28;19913;-92